sensor_id;sensor_type;location;lat;lon;timestamp;P1;durP1;ratioP1;P2;durP2;ratioP2
35679;SDS011;21803;53.586;10.040;2022-09-09T00:04:29;0.82;;;0.82;;
35679;SDS011;21803;53.586;10.040;2022-09-09T00:12:30;1.10;;;1.00;;
35679;SDS011;21803;53.586;10.040;2022-09-09T00:15:10;1.50;;;1.38;;
35679;SDS011;21803;53.586;10.040;2022-09-09T00:23:11;1.10;;;1.00;;
35679;SDS011;21803;53.586;10.040;2022-09-09T00:28:22;1.40;;;1.23;;
35679;SDS011;21803;53.586;10.040;2022-09-09T00:30:50;1.67;;;1.30;;
35679;SDS011;21803;53.586;10.040;2022-09-09T00:33:17;1.20;;;1.10;;
35679;SDS011;21803;53.586;10.040;2022-09-09T00:35:48;1.13;;;1.00;;
35679;SDS011;21803;53.586;10.040;2022-09-09T00:38:34;1.33;;;1.23;;
35679;SDS011;21803;53.586;10.040;2022-09-09T00:41:22;1.10;;;1.00;;
35679;SDS011;21803;53.586;10.040;2022-09-09T00:50:00;1.17;;;1.08;;
35679;SDS011;21803;53.586;10.040;2022-09-09T00:55:19;1.23;;;1.10;;
35679;SDS011;21803;53.586;10.040;2022-09-09T00:57:52;1.50;;;1.30;;
35679;SDS011;21803;53.586;10.040;2022-09-09T01:05:46;0.93;;;0.90;;
35679;SDS011;21803;53.586;10.040;2022-09-09T01:08:27;1.38;;;1.20;;
35679;SDS011;21803;53.586;10.040;2022-09-09T01:11:25;1.70;;;1.30;;
35679;SDS011;21803;53.586;10.040;2022-09-09T01:14:01;1.30;;;1.20;;
35679;SDS011;21803;53.586;10.040;2022-09-09T01:16:38;1.20;;;1.10;;
35679;SDS011;21803;53.586;10.040;2022-09-09T01:19:06;1.25;;;1.15;;
35679;SDS011;21803;53.586;10.040;2022-09-09T01:22:39;1.20;;;1.10;;
35679;SDS011;21803;53.586;10.040;2022-09-09T01:24:50;1.30;;;1.13;;
35679;SDS011;21803;53.586;10.040;2022-09-09T01:27:40;1.23;;;1.10;;
35679;SDS011;21803;53.586;10.040;2022-09-09T01:30:09;1.33;;;1.08;;
35679;SDS011;21803;53.586;10.040;2022-09-09T01:32:41;1.27;;;1.13;;
35679;SDS011;21803;53.586;10.040;2022-09-09T01:35:55;1.25;;;1.15;;
35679;SDS011;21803;53.586;10.040;2022-09-09T01:38:02;1.30;;;1.08;;
35679;SDS011;21803;53.586;10.040;2022-09-09T01:40:28;1.60;;;1.10;;
35679;SDS011;21803;53.586;10.040;2022-09-09T01:42:53;1.90;;;1.20;;
35679;SDS011;21803;53.586;10.040;2022-09-09T01:45:20;1.50;;;1.17;;
35679;SDS011;21803;53.586;10.040;2022-09-09T01:47:46;1.27;;;1.17;;
35679;SDS011;21803;53.586;10.040;2022-09-09T01:50:14;1.83;;;1.27;;
35679;SDS011;21803;53.586;10.040;2022-09-09T01:52:41;1.08;;;0.98;;
35679;SDS011;21803;53.586;10.040;2022-09-09T01:55:08;1.08;;;0.90;;
35679;SDS011;21803;53.586;10.040;2022-09-09T02:00:15;1.40;;;1.30;;
35679;SDS011;21803;53.586;10.040;2022-09-09T02:02:48;1.13;;;1.02;;
35679;SDS011;21803;53.586;10.040;2022-09-09T02:08:10;1.40;;;1.20;;
35679;SDS011;21803;53.586;10.040;2022-09-09T02:10:44;1.88;;;1.30;;
35679;SDS011;21803;53.586;10.040;2022-09-09T02:13:17;1.20;;;1.10;;
35679;SDS011;21803;53.586;10.040;2022-09-09T02:21:15;1.58;;;1.30;;
35679;SDS011;21803;53.586;10.040;2022-09-09T02:23:42;1.27;;;1.10;;
35679;SDS011;21803;53.586;10.040;2022-09-09T02:26:10;1.20;;;1.10;;
35679;SDS011;21803;53.586;10.040;2022-09-09T02:28:38;1.23;;;1.05;;
35679;SDS011;21803;53.586;10.040;2022-09-09T02:31:05;1.17;;;0.98;;
35679;SDS011;21803;53.586;10.040;2022-09-09T02:33:33;1.15;;;1.05;;
35679;SDS011;21803;53.586;10.040;2022-09-09T02:36:03;1.33;;;1.20;;
35679;SDS011;21803;53.586;10.040;2022-09-09T02:38:32;1.73;;;1.20;;
35679;SDS011;21803;53.586;10.040;2022-09-09T02:41:01;1.35;;;1.00;;
35679;SDS011;21803;53.586;10.040;2022-09-09T02:43:31;1.20;;;1.10;;
35679;SDS011;21803;53.586;10.040;2022-09-09T02:48:58;1.23;;;1.08;;
35679;SDS011;21803;53.586;10.040;2022-09-09T02:51:30;1.20;;;1.10;;
35679;SDS011;21803;53.586;10.040;2022-09-09T02:54:26;1.42;;;1.33;;
35679;SDS011;21803;53.586;10.040;2022-09-09T02:56:56;1.30;;;1.17;;
35679;SDS011;21803;53.586;10.040;2022-09-09T02:59:27;1.40;;;1.10;;
35679;SDS011;21803;53.586;10.040;2022-09-09T03:01:54;1.38;;;1.17;;
35679;SDS011;21803;53.586;10.040;2022-09-09T03:04:19;1.60;;;1.15;;
35679;SDS011;21803;53.586;10.040;2022-09-09T03:06:45;1.30;;;1.08;;
35679;SDS011;21803;53.586;10.040;2022-09-09T03:09:11;1.45;;;1.10;;
35679;SDS011;21803;53.586;10.040;2022-09-09T03:11:36;1.60;;;1.15;;
35679;SDS011;21803;53.586;10.040;2022-09-09T03:14:03;1.17;;;1.08;;
35679;SDS011;21803;53.586;10.040;2022-09-09T03:16:29;1.33;;;1.23;;
35679;SDS011;21803;53.586;10.040;2022-09-09T03:18:54;1.40;;;1.10;;
35679;SDS011;21803;53.586;10.040;2022-09-09T03:21:20;1.27;;;1.05;;
35679;SDS011;21803;53.586;10.040;2022-09-09T03:23:47;1.10;;;1.00;;
35679;SDS011;21803;53.586;10.040;2022-09-09T03:26:13;1.20;;;1.00;;
35679;SDS011;21803;53.586;10.040;2022-09-09T03:28:40;1.52;;;1.33;;
35679;SDS011;21803;53.586;10.040;2022-09-09T03:31:06;1.20;;;1.10;;
35679;SDS011;21803;53.586;10.040;2022-09-09T03:33:35;1.13;;;1.00;;
35679;SDS011;21803;53.586;10.040;2022-09-09T03:36:02;1.40;;;1.20;;
35679;SDS011;21803;53.586;10.040;2022-09-09T03:38:28;1.25;;;1.15;;
35679;SDS011;21803;53.586;10.040;2022-09-09T03:40:54;0.95;;;0.85;;
35679;SDS011;21803;53.586;10.040;2022-09-09T03:43:22;1.30;;;1.10;;
35679;SDS011;21803;53.586;10.040;2022-09-09T03:45:51;1.65;;;1.10;;
35679;SDS011;21803;53.586;10.040;2022-09-09T03:48:17;1.23;;;1.13;;
35679;SDS011;21803;53.586;10.040;2022-09-09T03:50:47;1.73;;;1.10;;
35679;SDS011;21803;53.586;10.040;2022-09-09T03:53:14;1.30;;;1.02;;
35679;SDS011;21803;53.586;10.040;2022-09-09T03:55:47;1.35;;;1.25;;
35679;SDS011;21803;53.586;10.040;2022-09-09T03:58:15;1.40;;;1.20;;
35679;SDS011;21803;53.586;10.040;2022-09-09T04:00:43;1.33;;;1.10;;
35679;SDS011;21803;53.586;10.040;2022-09-09T04:03:18;1.30;;;1.08;;
35679;SDS011;21803;53.586;10.040;2022-09-09T04:05:43;1.08;;;0.98;;
35679;SDS011;21803;53.586;10.040;2022-09-09T04:08:09;1.10;;;1.00;;
35679;SDS011;21803;53.586;10.040;2022-09-09T04:10:34;1.20;;;1.00;;
35679;SDS011;21803;53.586;10.040;2022-09-09T04:13:02;0.90;;;0.80;;
35679;SDS011;21803;53.586;10.040;2022-09-09T04:15:28;1.20;;;1.10;;
35679;SDS011;21803;53.586;10.040;2022-09-09T04:17:54;1.13;;;0.93;;
35679;SDS011;21803;53.586;10.040;2022-09-09T04:20:20;1.13;;;0.90;;
35679;SDS011;21803;53.586;10.040;2022-09-09T04:22:47;1.10;;;1.00;;
35679;SDS011;21803;53.586;10.040;2022-09-09T04:25:12;1.70;;;1.27;;
35679;SDS011;21803;53.586;10.040;2022-09-09T04:27:38;1.45;;;1.00;;
35679;SDS011;21803;53.586;10.040;2022-09-09T04:30:03;1.15;;;1.00;;
35679;SDS011;21803;53.586;10.040;2022-09-09T04:32:31;1.00;;;0.90;;
35679;SDS011;21803;53.586;10.040;2022-09-09T04:34:58;1.17;;;1.00;;
35679;SDS011;21803;53.586;10.040;2022-09-09T04:37:23;1.20;;;1.10;;
35679;SDS011;21803;53.586;10.040;2022-09-09T04:39:49;1.40;;;1.00;;
35679;SDS011;21803;53.586;10.040;2022-09-09T04:42:15;1.20;;;1.10;;
35679;SDS011;21803;53.586;10.040;2022-09-09T04:44:42;1.23;;;1.00;;
35679;SDS011;21803;53.586;10.040;2022-09-09T04:47:08;1.27;;;1.17;;
35679;SDS011;21803;53.586;10.040;2022-09-09T04:49:34;1.15;;;1.00;;
35679;SDS011;21803;53.586;10.040;2022-09-09T04:52:01;1.10;;;1.00;;
35679;SDS011;21803;53.586;10.040;2022-09-09T04:54:27;1.70;;;1.10;;
35679;SDS011;21803;53.586;10.040;2022-09-09T04:56:53;0.90;;;0.90;;
35679;SDS011;21803;53.586;10.040;2022-09-09T04:59:19;1.58;;;1.10;;
35679;SDS011;21803;53.586;10.040;2022-09-09T05:01:46;1.10;;;1.00;;
35679;SDS011;21803;53.586;10.040;2022-09-09T05:04:12;0.95;;;0.88;;
35679;SDS011;21803;53.586;10.040;2022-09-09T05:06:39;1.20;;;1.00;;
35679;SDS011;21803;53.586;10.040;2022-09-09T05:09:04;2.65;;;1.00;;
35679;SDS011;21803;53.586;10.040;2022-09-09T05:11:31;0.98;;;0.98;;
35679;SDS011;21803;53.586;10.040;2022-09-09T05:13:57;1.40;;;1.00;;
35679;SDS011;21803;53.586;10.040;2022-09-09T05:16:23;0.88;;;0.80;;
35679;SDS011;21803;53.586;10.040;2022-09-09T05:18:49;1.10;;;0.93;;
35679;SDS011;21803;53.586;10.040;2022-09-09T05:21:19;1.10;;;1.00;;
35679;SDS011;21803;53.586;10.040;2022-09-09T05:23:46;1.10;;;0.90;;
35679;SDS011;21803;53.586;10.040;2022-09-09T05:26:13;1.23;;;0.98;;
35679;SDS011;21803;53.586;10.040;2022-09-09T05:28:40;1.00;;;0.90;;
35679;SDS011;21803;53.586;10.040;2022-09-09T05:31:06;1.20;;;1.10;;
35679;SDS011;21803;53.586;10.040;2022-09-09T05:33:33;1.35;;;1.20;;
35679;SDS011;21803;53.586;10.040;2022-09-09T05:36:01;1.23;;;0.90;;
35679;SDS011;21803;53.586;10.040;2022-09-09T05:38:32;1.02;;;0.90;;
35679;SDS011;21803;53.586;10.040;2022-09-09T05:40:58;1.08;;;0.90;;
35679;SDS011;21803;53.586;10.040;2022-09-09T05:43:25;1.10;;;1.00;;
35679;SDS011;21803;53.586;10.040;2022-09-09T05:48:30;1.25;;;1.00;;
35679;SDS011;21803;53.586;10.040;2022-09-09T05:50:57;0.90;;;0.90;;
35679;SDS011;21803;53.586;10.040;2022-09-09T05:53:24;1.08;;;1.00;;
35679;SDS011;21803;53.586;10.040;2022-09-09T05:55:50;1.40;;;1.05;;
35679;SDS011;21803;53.586;10.040;2022-09-09T05:58:22;0.88;;;0.85;;
35679;SDS011;21803;53.586;10.040;2022-09-09T06:00:49;1.42;;;1.08;;
35679;SDS011;21803;53.586;10.040;2022-09-09T06:03:15;1.25;;;1.15;;
35679;SDS011;21803;53.586;10.040;2022-09-09T06:05:41;1.25;;;1.15;;
35679;SDS011;21803;53.586;10.040;2022-09-09T06:08:07;1.20;;;0.90;;
35679;SDS011;21803;53.586;10.040;2022-09-09T06:10:33;0.82;;;0.82;;
35679;SDS011;21803;53.586;10.040;2022-09-09T06:12:59;1.00;;;0.90;;
35679;SDS011;21803;53.586;10.040;2022-09-09T06:15:24;1.25;;;1.10;;
35679;SDS011;21803;53.586;10.040;2022-09-09T06:17:54;1.05;;;0.90;;
35679;SDS011;21803;53.586;10.040;2022-09-09T06:20:21;1.00;;;0.90;;
35679;SDS011;21803;53.586;10.040;2022-09-09T06:22:47;1.10;;;1.00;;
35679;SDS011;21803;53.586;10.040;2022-09-09T06:25:13;1.10;;;1.00;;
35679;SDS011;21803;53.586;10.040;2022-09-09T06:27:39;0.90;;;0.90;;
35679;SDS011;21803;53.586;10.040;2022-09-09T06:30:05;1.00;;;0.90;;
35679;SDS011;21803;53.586;10.040;2022-09-09T06:32:32;1.33;;;1.20;;
35679;SDS011;21803;53.586;10.040;2022-09-09T06:34:59;1.15;;;0.98;;
35679;SDS011;21803;53.586;10.040;2022-09-09T06:37:26;1.20;;;1.10;;
35679;SDS011;21803;53.586;10.040;2022-09-09T06:39:52;1.13;;;1.02;;
35679;SDS011;21803;53.586;10.040;2022-09-09T06:42:19;1.33;;;1.00;;
35679;SDS011;21803;53.586;10.040;2022-09-09T06:44:45;1.10;;;1.00;;
35679;SDS011;21803;53.586;10.040;2022-09-09T06:47:10;1.35;;;1.20;;
35679;SDS011;21803;53.586;10.040;2022-09-09T06:49:36;1.10;;;1.00;;
35679;SDS011;21803;53.586;10.040;2022-09-09T06:52:01;0.82;;;0.80;;
35679;SDS011;21803;53.586;10.040;2022-09-09T06:54:27;1.05;;;0.98;;
35679;SDS011;21803;53.586;10.040;2022-09-09T06:56:52;0.95;;;0.90;;
35679;SDS011;21803;53.586;10.040;2022-09-09T06:59:18;1.20;;;1.10;;
35679;SDS011;21803;53.586;10.040;2022-09-09T07:01:43;1.05;;;0.95;;
35679;SDS011;21803;53.586;10.040;2022-09-09T07:04:09;1.00;;;0.90;;
35679;SDS011;21803;53.586;10.040;2022-09-09T07:06:40;0.98;;;0.88;;
35679;SDS011;21803;53.586;10.040;2022-09-09T07:09:11;1.10;;;1.00;;
35679;SDS011;21803;53.586;10.040;2022-09-09T07:11:39;1.08;;;0.90;;
35679;SDS011;21803;53.586;10.040;2022-09-09T07:14:07;1.02;;;0.93;;
35679;SDS011;21803;53.586;10.040;2022-09-09T07:16:33;1.50;;;1.10;;
35679;SDS011;21803;53.586;10.040;2022-09-09T07:19:01;1.00;;;0.90;;
35679;SDS011;21803;53.586;10.040;2022-09-09T07:21:28;0.98;;;0.90;;
35679;SDS011;21803;53.586;10.040;2022-09-09T07:23:55;1.10;;;1.00;;
35679;SDS011;21803;53.586;10.040;2022-09-09T07:26:22;1.10;;;0.80;;
35679;SDS011;21803;53.586;10.040;2022-09-09T07:28:52;0.80;;;0.80;;
35679;SDS011;21803;53.586;10.040;2022-09-09T07:31:21;0.70;;;0.70;;
35679;SDS011;21803;53.586;10.040;2022-09-09T07:34:06;0.88;;;0.88;;
35679;SDS011;21803;53.586;10.040;2022-09-09T07:36:36;1.08;;;0.98;;
35679;SDS011;21803;53.586;10.040;2022-09-09T07:39:04;1.40;;;1.00;;
35679;SDS011;21803;53.586;10.040;2022-09-09T07:41:37;1.27;;;1.00;;
35679;SDS011;21803;53.586;10.040;2022-09-09T07:44:15;1.15;;;0.93;;
35679;SDS011;21803;53.586;10.040;2022-09-09T07:46:42;0.80;;;0.80;;
35679;SDS011;21803;53.586;10.040;2022-09-09T07:49:09;1.20;;;0.93;;
35679;SDS011;21803;53.586;10.040;2022-09-09T07:51:36;1.02;;;0.88;;
35679;SDS011;21803;53.586;10.040;2022-09-09T07:54:05;1.00;;;0.90;;
35679;SDS011;21803;53.586;10.040;2022-09-09T07:56:32;1.15;;;0.85;;
35679;SDS011;21803;53.586;10.040;2022-09-09T07:58:58;1.00;;;0.90;;
35679;SDS011;21803;53.586;10.040;2022-09-09T08:01:31;1.30;;;1.10;;
35679;SDS011;21803;53.586;10.040;2022-09-09T08:04:03;0.80;;;0.80;;
35679;SDS011;21803;53.586;10.040;2022-09-09T08:06:40;1.10;;;1.00;;
35679;SDS011;21803;53.586;10.040;2022-09-09T08:09:07;0.85;;;0.85;;
35679;SDS011;21803;53.586;10.040;2022-09-09T08:11:33;0.77;;;0.70;;
35679;SDS011;21803;53.586;10.040;2022-09-09T08:14:00;1.67;;;0.95;;
35679;SDS011;21803;53.586;10.040;2022-09-09T08:16:28;1.02;;;0.80;;
35679;SDS011;21803;53.586;10.040;2022-09-09T08:18:56;1.17;;;1.05;;
35679;SDS011;21803;53.586;10.040;2022-09-09T08:21:23;1.42;;;0.90;;
35679;SDS011;21803;53.586;10.040;2022-09-09T08:23:52;1.80;;;0.80;;
35679;SDS011;21803;53.586;10.040;2022-09-09T08:26:22;0.93;;;0.90;;
35679;SDS011;21803;53.586;10.040;2022-09-09T08:28:59;1.00;;;0.80;;
35679;SDS011;21803;53.586;10.040;2022-09-09T08:31:27;1.10;;;0.98;;
35679;SDS011;21803;53.586;10.040;2022-09-09T08:33:55;1.20;;;1.00;;
35679;SDS011;21803;53.586;10.040;2022-09-09T08:36:22;1.70;;;0.90;;
35679;SDS011;21803;53.586;10.040;2022-09-09T08:38:51;1.00;;;0.90;;
35679;SDS011;21803;53.586;10.040;2022-09-09T08:49:56;0.85;;;0.70;;
35679;SDS011;21803;53.586;10.040;2022-09-09T08:52:51;1.10;;;0.98;;
35679;SDS011;21803;53.586;10.040;2022-09-09T08:57:56;0.98;;;0.85;;
35679;SDS011;21803;53.586;10.040;2022-09-09T09:00:27;1.00;;;0.90;;
35679;SDS011;21803;53.586;10.040;2022-09-09T09:03:06;0.80;;;0.80;;
35679;SDS011;21803;53.586;10.040;2022-09-09T09:05:46;1.20;;;0.90;;
35679;SDS011;21803;53.586;10.040;2022-09-09T09:11:21;0.80;;;0.80;;
35679;SDS011;21803;53.586;10.040;2022-09-09T09:13:52;1.00;;;0.90;;
35679;SDS011;21803;53.586;10.040;2022-09-09T09:18:54;0.80;;;0.80;;
35679;SDS011;21803;53.586;10.040;2022-09-09T09:21:31;2.13;;;1.10;;
35679;SDS011;21803;53.586;10.040;2022-09-09T09:24:03;0.77;;;0.77;;
35679;SDS011;21803;53.586;10.040;2022-09-09T09:26:40;1.25;;;0.90;;
35679;SDS011;21803;53.586;10.040;2022-09-09T09:29:09;0.77;;;0.75;;
35679;SDS011;21803;53.586;10.040;2022-09-09T09:31:51;0.95;;;0.77;;
35679;SDS011;21803;53.586;10.040;2022-09-09T09:34:21;0.85;;;0.85;;
35679;SDS011;21803;53.586;10.040;2022-09-09T09:36:52;0.80;;;0.80;;
35679;SDS011;21803;53.586;10.040;2022-09-09T09:39:27;0.82;;;0.80;;
35679;SDS011;21803;53.586;10.040;2022-09-09T09:42:07;0.95;;;0.82;;
35679;SDS011;21803;53.586;10.040;2022-09-09T09:44:38;0.80;;;0.80;;
35679;SDS011;21803;53.586;10.040;2022-09-09T09:47:10;0.68;;;0.68;;
35679;SDS011;21803;53.586;10.040;2022-09-09T09:49:59;0.80;;;0.80;;
35679;SDS011;21803;53.586;10.040;2022-09-09T09:52:28;0.80;;;0.73;;
35679;SDS011;21803;53.586;10.040;2022-09-09T09:54:55;0.88;;;0.70;;
35679;SDS011;21803;53.586;10.040;2022-09-09T09:57:24;1.00;;;0.90;;
35679;SDS011;21803;53.586;10.040;2022-09-09T10:00:13;0.90;;;0.80;;
35679;SDS011;21803;53.586;10.040;2022-09-09T10:02:44;0.85;;;0.77;;
35679;SDS011;21803;53.586;10.040;2022-09-09T10:05:21;0.90;;;0.80;;
35679;SDS011;21803;53.586;10.040;2022-09-09T10:08:04;0.80;;;0.80;;
35679;SDS011;21803;53.586;10.040;2022-09-09T10:19:15;0.90;;;0.80;;
35679;SDS011;21803;53.586;10.040;2022-09-09T10:21:48;0.80;;;0.80;;
35679;SDS011;21803;53.586;10.040;2022-09-09T10:24:27;1.73;;;0.80;;
35679;SDS011;21803;53.586;10.040;2022-09-09T10:33:16;0.63;;;0.63;;
35679;SDS011;21803;53.586;10.040;2022-09-09T10:38:45;0.70;;;0.70;;
35679;SDS011;21803;53.586;10.040;2022-09-09T10:44:14;0.75;;;0.75;;
35679;SDS011;21803;53.586;10.040;2022-09-09T10:46:48;0.60;;;0.60;;
35679;SDS011;21803;53.586;10.040;2022-09-09T10:52:27;0.80;;;0.80;;
35679;SDS011;21803;53.586;10.040;2022-09-09T10:55:12;1.15;;;1.02;;
35679;SDS011;21803;53.586;10.040;2022-09-09T10:57:40;0.70;;;0.70;;
35679;SDS011;21803;53.586;10.040;2022-09-09T11:00:15;0.98;;;0.70;;
35679;SDS011;21803;53.586;10.040;2022-09-09T11:02:44;0.98;;;0.80;;
35679;SDS011;21803;53.586;10.040;2022-09-09T11:05:23;1.00;;;0.70;;
35679;SDS011;21803;53.586;10.040;2022-09-09T11:07:55;0.70;;;0.70;;
35679;SDS011;21803;53.586;10.040;2022-09-09T11:10:28;0.90;;;0.77;;
35679;SDS011;21803;53.586;10.040;2022-09-09T11:13:22;0.80;;;0.70;;
35679;SDS011;21803;53.586;10.040;2022-09-09T11:15:58;0.60;;;0.60;;
35679;SDS011;21803;53.586;10.040;2022-09-09T11:18:45;1.35;;;0.90;;
35679;SDS011;21803;53.586;10.040;2022-09-09T11:21:17;0.73;;;0.73;;
35679;SDS011;21803;53.586;10.040;2022-09-09T11:23:59;1.02;;;0.80;;
35679;SDS011;21803;53.586;10.040;2022-09-09T11:26:38;0.60;;;0.60;;
35679;SDS011;21803;53.586;10.040;2022-09-09T11:35:02;0.70;;;0.68;;
35679;SDS011;21803;53.586;10.040;2022-09-09T11:37:47;0.85;;;0.85;;
35679;SDS011;21803;53.586;10.040;2022-09-09T11:40:28;1.02;;;0.80;;
35679;SDS011;21803;53.586;10.040;2022-09-09T11:43:04;1.15;;;0.80;;
35679;SDS011;21803;53.586;10.040;2022-09-09T11:45:37;0.65;;;0.65;;
35679;SDS011;21803;53.586;10.040;2022-09-09T11:48:22;0.70;;;0.70;;
35679;SDS011;21803;53.586;10.040;2022-09-09T11:50:58;1.00;;;0.90;;
35679;SDS011;21803;53.586;10.040;2022-09-09T11:53:26;0.98;;;0.88;;
35679;SDS011;21803;53.586;10.040;2022-09-09T11:58:33;0.95;;;0.82;;
35679;SDS011;21803;53.586;10.040;2022-09-09T12:01:12;0.82;;;0.80;;
35679;SDS011;21803;53.586;10.040;2022-09-09T12:04:05;0.75;;;0.70;;
35679;SDS011;21803;53.586;10.040;2022-09-09T12:06:44;0.70;;;0.70;;
35679;SDS011;21803;53.586;10.040;2022-09-09T12:11:40;1.17;;;0.82;;
35679;SDS011;21803;53.586;10.040;2022-09-09T12:14:18;1.52;;;0.90;;
35679;SDS011;21803;53.586;10.040;2022-09-09T12:16:47;0.88;;;0.75;;
35679;SDS011;21803;53.586;10.040;2022-09-09T12:24:40;0.80;;;0.80;;
35679;SDS011;21803;53.586;10.040;2022-09-09T12:27:27;0.65;;;0.65;;
35679;SDS011;21803;53.586;10.040;2022-09-09T12:30:33;1.30;;;0.90;;
35679;SDS011;21803;53.586;10.040;2022-09-09T12:33:02;1.00;;;0.73;;
35679;SDS011;21803;53.586;10.040;2022-09-09T12:35:35;0.63;;;0.60;;
35679;SDS011;21803;53.586;10.040;2022-09-09T12:38:03;1.05;;;0.70;;
35679;SDS011;21803;53.586;10.040;2022-09-09T12:40:34;0.80;;;0.70;;
35679;SDS011;21803;53.586;10.040;2022-09-09T12:43:00;0.63;;;0.60;;
35679;SDS011;21803;53.586;10.040;2022-09-09T12:45:46;0.80;;;0.70;;
35679;SDS011;21803;53.586;10.040;2022-09-09T12:48:21;0.80;;;0.80;;
35679;SDS011;21803;53.586;10.040;2022-09-09T12:50:50;0.73;;;0.70;;
35679;SDS011;21803;53.586;10.040;2022-09-09T12:53:29;0.80;;;0.80;;
35679;SDS011;21803;53.586;10.040;2022-09-09T12:56:03;1.95;;;0.90;;
35679;SDS011;21803;53.586;10.040;2022-09-09T12:58:32;1.23;;;0.80;;
35679;SDS011;21803;53.586;10.040;2022-09-09T13:01:00;0.70;;;0.70;;
35679;SDS011;21803;53.586;10.040;2022-09-09T13:03:29;0.70;;;0.70;;
35679;SDS011;21803;53.586;10.040;2022-09-09T13:05:57;0.82;;;0.70;;
35679;SDS011;21803;53.586;10.040;2022-09-09T13:08:27;0.75;;;0.63;;
35679;SDS011;21803;53.586;10.040;2022-09-09T13:10:57;0.70;;;0.70;;
35679;SDS011;21803;53.586;10.040;2022-09-09T13:15:57;1.02;;;0.75;;
35679;SDS011;21803;53.586;10.040;2022-09-09T13:18:29;0.80;;;0.80;;
35679;SDS011;21803;53.586;10.040;2022-09-09T13:20:56;0.50;;;0.50;;
35679;SDS011;21803;53.586;10.040;2022-09-09T13:23:23;0.70;;;0.70;;
35679;SDS011;21803;53.586;10.040;2022-09-09T13:26:02;0.75;;;0.75;;
35679;SDS011;21803;53.586;10.040;2022-09-09T13:28:46;0.70;;;0.60;;
35679;SDS011;21803;53.586;10.040;2022-09-09T13:31:23;0.77;;;0.77;;
35679;SDS011;21803;53.586;10.040;2022-09-09T13:33:53;0.65;;;0.60;;
35679;SDS011;21803;53.586;10.040;2022-09-09T13:36:27;0.80;;;0.80;;
35679;SDS011;21803;53.586;10.040;2022-09-09T13:38:57;0.70;;;0.70;;
35679;SDS011;21803;53.586;10.040;2022-09-09T13:41:36;0.70;;;0.70;;
35679;SDS011;21803;53.586;10.040;2022-09-09T13:44:17;0.80;;;0.73;;
35679;SDS011;21803;53.586;10.040;2022-09-09T13:47:05;0.80;;;0.70;;
35679;SDS011;21803;53.586;10.040;2022-09-09T13:49:43;0.60;;;0.50;;
35679;SDS011;21803;53.586;10.040;2022-09-09T13:52:11;0.82;;;0.70;;
35679;SDS011;21803;53.586;10.040;2022-09-09T13:54:42;1.02;;;0.60;;
35679;SDS011;21803;53.586;10.040;2022-09-09T13:57:17;1.05;;;0.80;;
35679;SDS011;21803;53.586;10.040;2022-09-09T13:59:50;0.80;;;0.60;;
35679;SDS011;21803;53.586;10.040;2022-09-09T14:02:17;0.85;;;0.70;;
35679;SDS011;21803;53.586;10.040;2022-09-09T14:04:43;1.08;;;0.70;;
35679;SDS011;21803;53.586;10.040;2022-09-09T14:07:13;0.60;;;0.60;;
35679;SDS011;21803;53.586;10.040;2022-09-09T14:09:40;0.93;;;0.63;;
35679;SDS011;21803;53.586;10.040;2022-09-09T14:12:12;0.80;;;0.70;;
35679;SDS011;21803;53.586;10.040;2022-09-09T14:14:39;0.70;;;0.57;;
35679;SDS011;21803;53.586;10.040;2022-09-09T14:17:06;0.68;;;0.68;;
35679;SDS011;21803;53.586;10.040;2022-09-09T14:19:32;0.55;;;0.55;;
35679;SDS011;21803;53.586;10.040;2022-09-09T14:21:59;0.60;;;0.60;;
35679;SDS011;21803;53.586;10.040;2022-09-09T14:24:25;0.95;;;0.60;;
35679;SDS011;21803;53.586;10.040;2022-09-09T14:26:50;0.77;;;0.70;;
35679;SDS011;21803;53.586;10.040;2022-09-09T14:29:16;0.70;;;0.70;;
35679;SDS011;21803;53.586;10.040;2022-09-09T14:31:42;0.55;;;0.55;;
35679;SDS011;21803;53.586;10.040;2022-09-09T14:34:07;0.70;;;0.60;;
35679;SDS011;21803;53.586;10.040;2022-09-09T14:36:34;0.70;;;0.60;;
35679;SDS011;21803;53.586;10.040;2022-09-09T14:39:00;0.63;;;0.60;;
35679;SDS011;21803;53.586;10.040;2022-09-09T14:41:26;0.80;;;0.63;;
35679;SDS011;21803;53.586;10.040;2022-09-09T14:43:51;0.70;;;0.63;;
35679;SDS011;21803;53.586;10.040;2022-09-09T14:46:17;1.02;;;0.70;;
35679;SDS011;21803;53.586;10.040;2022-09-09T14:48:44;0.80;;;0.60;;
35679;SDS011;21803;53.586;10.040;2022-09-09T14:51:23;0.60;;;0.60;;
35679;SDS011;21803;53.586;10.040;2022-09-09T14:53:57;1.00;;;0.88;;
35679;SDS011;21803;53.586;10.040;2022-09-09T14:56:25;0.60;;;0.60;;
35679;SDS011;21803;53.586;10.040;2022-09-09T14:58:52;0.55;;;0.55;;
35679;SDS011;21803;53.586;10.040;2022-09-09T15:01:22;0.70;;;0.68;;
35679;SDS011;21803;53.586;10.040;2022-09-09T15:03:51;0.73;;;0.68;;
35679;SDS011;21803;53.586;10.040;2022-09-09T15:06:18;0.60;;;0.60;;
35679;SDS011;21803;53.586;10.040;2022-09-09T15:08:45;0.65;;;0.63;;
35679;SDS011;21803;53.586;10.040;2022-09-09T15:11:12;1.02;;;0.60;;
35679;SDS011;21803;53.586;10.040;2022-09-09T15:13:39;0.98;;;0.70;;
35679;SDS011;21803;53.586;10.040;2022-09-09T15:16:06;0.80;;;0.60;;
35679;SDS011;21803;53.586;10.040;2022-09-09T15:18:33;0.63;;;0.63;;
35679;SDS011;21803;53.586;10.040;2022-09-09T15:20:59;0.93;;;0.70;;
35679;SDS011;21803;53.586;10.040;2022-09-09T15:23:26;0.80;;;0.60;;
35679;SDS011;21803;53.586;10.040;2022-09-09T15:25:55;1.10;;;0.70;;
35679;SDS011;21803;53.586;10.040;2022-09-09T15:28:21;1.20;;;0.60;;
35679;SDS011;21803;53.586;10.040;2022-09-09T15:30:51;0.85;;;0.70;;
35679;SDS011;21803;53.586;10.040;2022-09-09T15:33:18;1.05;;;0.68;;
35679;SDS011;21803;53.586;10.040;2022-09-09T15:35:45;0.60;;;0.60;;
35679;SDS011;21803;53.586;10.040;2022-09-09T15:38:10;0.95;;;0.60;;
35679;SDS011;21803;53.586;10.040;2022-09-09T15:40:38;0.65;;;0.60;;
35679;SDS011;21803;53.586;10.040;2022-09-09T15:43:07;0.60;;;0.60;;
35679;SDS011;21803;53.586;10.040;2022-09-09T15:45:34;0.70;;;0.70;;
35679;SDS011;21803;53.586;10.040;2022-09-09T15:48:00;1.05;;;0.70;;
35679;SDS011;21803;53.586;10.040;2022-09-09T15:50:26;4.40;;;0.65;;
35679;SDS011;21803;53.586;10.040;2022-09-09T15:52:53;1.55;;;0.60;;
35679;SDS011;21803;53.586;10.040;2022-09-09T15:55:19;1.20;;;0.70;;
35679;SDS011;21803;53.586;10.040;2022-09-09T15:57:45;2.30;;;0.80;;
35679;SDS011;21803;53.586;10.040;2022-09-09T16:00:11;0.85;;;0.77;;
35679;SDS011;21803;53.586;10.040;2022-09-09T16:02:38;1.70;;;0.70;;
35679;SDS011;21803;53.586;10.040;2022-09-09T16:05:04;0.90;;;0.80;;
35679;SDS011;21803;53.586;10.040;2022-09-09T16:07:30;3.25;;;0.60;;
35679;SDS011;21803;53.586;10.040;2022-09-09T16:09:55;0.90;;;0.60;;
35679;SDS011;21803;53.586;10.040;2022-09-09T16:12:21;0.80;;;0.73;;
35679;SDS011;21803;53.586;10.040;2022-09-09T16:14:47;0.63;;;0.63;;
35679;SDS011;21803;53.586;10.040;2022-09-09T16:17:12;2.35;;;0.75;;
35679;SDS011;21803;53.586;10.040;2022-09-09T16:19:39;0.90;;;0.70;;
35679;SDS011;21803;53.586;10.040;2022-09-09T16:22:04;0.65;;;0.65;;
35679;SDS011;21803;53.586;10.040;2022-09-09T16:24:31;2.53;;;0.80;;
35679;SDS011;21803;53.586;10.040;2022-09-09T16:26:57;0.95;;;0.57;;
35679;SDS011;21803;53.586;10.040;2022-09-09T16:29:23;1.17;;;0.55;;
35679;SDS011;21803;53.586;10.040;2022-09-09T16:31:52;0.80;;;0.75;;
35679;SDS011;21803;53.586;10.040;2022-09-09T16:34:18;0.52;;;0.52;;
35679;SDS011;21803;53.586;10.040;2022-09-09T16:36:44;1.05;;;0.60;;
35679;SDS011;21803;53.586;10.040;2022-09-09T16:39:11;1.17;;;0.98;;